Time;durP1;ratioP1;P1;durP2;ratioP2;P2;SDS_P1;SDS_P2;PMS_P1;PMS_P2;Temp;Humidity;BMP_temperature;BMP_pressure;BME280_temperature;BME280_humidity;BME280_pressure;Samples;Min_cycle;Max_cycle;Signal;HPM_P1;HPM_P2
2022/01/21 00:01:47;;;;;;;2.25;1.10;;;21.20;67.20;;;;;;5015522;28;95867;-39
2022/01/21 00:04:19;;;;;;;3.75;1.38;;;21.30;67.20;;;;;;5018115;28;94925;-39
2022/01/21 00:06:51;;;;;;;3.35;1.25;;;21.30;67.00;;;;;;5017843;28;95124;-39
2022/01/21 00:09:23;;;;;;;3.72;1.48;;;21.30;67.00;;;;;;5017146;28;95838;-39
2022/01/21 00:11:53;;;;;;;;;;;21.40;67.00;;;;;;4998579;28;96244;-39
2022/01/21 00:14:25;;;;;;;2.03;0.93;;;21.40;66.90;;;;;;5018712;28;94974;-38
2022/01/21 00:16:58;;;;;;;2.15;0.98;;;21.50;67.10;;;;;;5016453;28;95086;-38
2022/01/21 00:19:38;;;;;;;7.03;1.10;;;21.50;67.00;;;;;;5016744;28;96120;-38
2022/01/21 00:30:49;;;;;;;1.27;0.80;;;21.70;66.80;;;;;;5020739;28;96461;-38
2022/01/21 00:33:23;;;;;;;2.88;1.17;;;21.80;66.80;;;;;;5020518;28;95769;-38
2022/01/21 00:35:55;;;;;;;4.85;1.15;;;21.80;66.80;;;;;;5020904;28;94931;-39
2022/01/21 00:38:29;;;;;;;2.38;0.98;;;21.90;66.80;;;;;;5020947;28;95052;-38
2022/01/21 00:41:04;;;;;;;2.42;1.00;;;22.00;66.80;;;;;;5019900;28;95810;-40
2022/01/21 00:43:44;;;;;;;4.03;1.02;;;22.00;66.60;;;;;;5019710;28;95835;-39
2022/01/21 00:46:19;;;;;;;3.10;0.70;;;22.10;66.50;;;;;;5020297;28;95149;-39
2022/01/21 00:48:51;;;;;;;4.55;1.15;;;22.10;66.40;;;;;;5021820;28;95187;-39
2022/01/21 00:51:26;;;;;;;4.35;1.00;;;22.20;66.40;;;;;;5021012;28;96305;-41
2022/01/21 00:53:58;;;;;;;3.47;1.08;;;22.10;66.20;;;;;;5021051;28;95226;-39
2022/01/21 00:56:30;;;;;;;3.38;0.90;;;22.10;65.80;;;;;;5021228;28;94952;-39
2022/01/21 00:59:01;;;;;;;;;;;22.10;65.70;;;;;;5020713;28;95342;-39
2022/01/21 01:01:34;;;;;;;3.03;0.95;;;22.10;65.70;;;;;;5021534;28;95889;-38
2022/01/21 01:04:08;;;;;;;3.05;1.42;;;22.00;63.80;;;;;;5019208;28;95370;-39
2022/01/21 01:06:41;;;;;;;3.03;1.00;;;22.10;64.50;;;;;;5020520;28;94939;-39
2022/01/21 01:09:13;;;;;;;5.32;1.55;;;22.10;63.60;;;;;;5002192;28;95343;-39
2022/01/21 01:12:07;;;;;;;3.75;1.33;;;22.10;63.50;;;;;;5020010;28;95062;-39
2022/01/21 01:20:27;;;;;;;;;;;22.00;62.30;;;;;;5036018;28;95333;-39
2022/01/21 01:28:52;;;;;;;2.22;0.95;;;22.30;62.10;;;;;;5019890;28;94910;-37
2022/01/21 01:31:25;;;;;;;1.98;1.20;;;22.40;62.00;;;;;;5019441;28;95266;-37
2022/01/21 01:33:59;;;;;;;4.88;1.33;;;22.50;61.60;;;;;;5018287;28;96405;-37
2022/01/21 01:36:32;;;;;;;1.75;0.85;;;22.60;61.40;;;;;;5019352;28;95183;-37
2022/01/21 01:39:30;;;;;;;1.98;0.90;;;22.70;61.30;;;;;;5018595;28;94949;-37
2022/01/21 01:50:49;;;;;;;2.17;1.10;;;23.10;60.60;;;;;;5020600;28;95027;-37
2022/01/21 01:53:26;;;;;;;1.67;0.98;;;23.20;60.50;;;;;;5020835;28;95188;-37
2022/01/21 01:56:01;;;;;;;3.03;0.50;;;23.50;60.40;;;;;;5001881;28;96090;-38
2022/01/21 01:58:36;;;;;;;1.10;0.60;;;23.70;60.30;;;;;;5018891;28;95366;-46
2022/01/21 02:01:11;;;;;;;2.22;0.80;;;23.80;60.00;;;;;;5019634;28;94958;-46
2022/01/21 02:03:43;;;;;;;0.80;0.65;;;24.00;59.80;;;;;;5018907;28;95272;-46
2022/01/21 02:06:15;;;;;;;1.30;0.90;;;24.10;59.70;;;;;;5019042;28;95937;-46
2022/01/21 02:08:48;;;;;;;0.90;0.65;;;24.30;59.50;;;;;;5018686;28;95428;-46
2022/01/21 02:11:20;;;;;;;1.40;0.85;;;24.40;59.40;;;;;;5018902;28;95009;-45
2022/01/21 02:14:00;;;;;;;1.33;0.68;;;24.50;58.50;;;;;;5018725;28;95340;-46
2022/01/21 02:17:05;;;;;;;0.55;0.55;;;24.70;59.20;;;;;;5019080;28;95737;-47
2022/01/21 02:22:35;;;;;;;0.80;0.63;;;24.90;58.90;;;;;;5018819;28;95043;-46
2022/01/21 02:25:21;;;;;;;0.88;0.88;;;25.10;58.80;;;;;;5002874;28;95479;-46
2022/01/21 02:28:00;;;;;;;0.85;0.63;;;25.20;58.60;;;;;;5018617;28;96448;-45
2022/01/21 02:30:37;;;;;;;3.40;0.80;;;25.30;58.40;;;;;;5000571;28;96026;-46
2022/01/21 02:33:09;;;;;;;2.15;1.10;;;25.30;52.70;;;;;;5019084;28;95025;-46
2022/01/21 02:35:41;;;;;;;2.67;1.40;;;25.20;54.70;;;;;;4984831;28;95352;-47
2022/01/21 02:38:15;;;;;;;2.10;1.33;;;25.10;54.80;;;;;;5018478;28;95854;-47
2022/01/21 02:40:47;;;;;;;2.35;1.27;;;25.00;54.30;;;;;;5000495;28;95818;-46
2022/01/21 02:43:23;;;;;;;1.60;1.00;;;25.00;53.50;;;;;;5001384;28;94961;-47
2022/01/21 02:45:55;;;;;;;2.58;1.25;;;25.00;53.40;;;;;;5019170;28;95352;-47
2022/01/21 02:48:29;;;;;;;1.55;1.10;;;25.00;52.80;;;;;;5019148;28;95313;-46
2022/01/21 02:51:03;;;;;;;2.28;1.50;;;25.00;52.60;;;;;;5018651;28;95355;-46
2022/01/21 02:54:04;;;;;;;2.95;1.35;;;25.00;52.10;;;;;;5019389;28;95017;-47
2022/01/21 02:56:40;;;;;;;2.63;1.10;;;25.10;52.50;;;;;;5019635;28;95254;-47
2022/01/21 02:59:12;;;;;;;4.15;1.10;;;25.10;52.00;;;;;;5018123;28;95928;-47
2022/01/21 03:01:49;;;;;;;3.28;1.20;;;25.10;52.10;;;;;;5016784;28;95470;-47
2022/01/21 03:04:38;;;;;;;2.13;1.08;;;25.30;52.70;;;;;;5001235;28;95033;-47
2022/01/21 03:07:10;;;;;;;0.85;0.80;;;25.40;52.90;;;;;;5019175;28;95118;-47
2022/01/21 03:09:45;;;;;;;0.90;0.82;;;25.50;53.20;;;;;;5018326;28;96548;-47
2022/01/21 03:12:18;;;;;;;1.63;0.90;;;25.60;53.40;;;;;;5018183;28;95508;-47
2022/01/21 03:14:50;;;;;;;1.40;1.10;;;25.70;53.70;;;;;;5018160;28;94901;-47
2022/01/21 03:17:23;;;;;;;1.30;0.85;;;25.80;54.10;;;;;;5016668;28;95310;-47
2022/01/21 03:19:56;;;;;;;1.85;0.80;;;25.90;54.60;;;;;;5033004;28;96073;-47
2022/01/21 03:22:32;;;;;;;2.05;0.85;;;26.00;55.00;;;;;;5017799;28;95790;-48
2022/01/21 03:25:07;;;;;;;2.50;1.40;;;26.10;55.20;;;;;;5018041;28;95056;-47
2022/01/21 03:27:39;;;;;;;2.00;0.98;;;26.20;55.10;;;;;;5017955;28;95315;-47
2022/01/21 03:30:12;;;;;;;5.10;1.00;;;26.20;55.10;;;;;;4999382;28;98554;-47
2022/01/21 03:32:54;;;;;;;2.33;1.05;;;26.30;55.20;;;;;;4999560;28;95809;-48
2022/01/21 03:35:28;;;;;;;0.63;0.63;;;26.30;55.50;;;;;;5018208;28;94991;-47
2022/01/21 03:38:01;;;;;;;0.60;0.60;;;26.30;55.60;;;;;;5016973;28;95371;-48
2022/01/21 03:40:34;;;;;;;2.67;1.25;;;26.40;55.90;;;;;;4998809;28;96267;-47
2022/01/21 03:43:07;;;;;;;3.75;1.33;;;26.20;39.00;;;;;;5016835;28;95734;-48
2022/01/21 03:45:40;;;;;;;2.58;1.20;;;25.70;50.60;;;;;;4999965;28;95005;-48
2022/01/21 03:48:12;;;;;;;2.10;1.40;;;25.50;46.00;;;;;;5018970;28;94948;-48
2022/01/21 03:50:44;;;;;;;2.22;1.00;;;25.20;50.20;;;;;;5017626;28;96536;-47
2022/01/21 03:53:18;;;;;;;2.20;1.23;;;25.10;50.40;;;;;;5000710;28;94961;-47
2022/01/21 03:55:52;;;;;;;2.17;1.40;;;25.10;50.20;;;;;;4999480;28;95072;-47
2022/01/21 03:58:24;;;;;;;2.40;1.38;;;25.10;50.10;;;;;;5018045;28;95228;-47
2022/01/21 04:00:57;;;;;;;2.38;1.50;;;25.00;50.00;;;;;;4999434;28;96530;-47
2022/01/21 04:03:33;;;;;;;3.65;1.70;;;25.00;50.00;;;;;;5016290;28;95536;-47
2022/01/21 04:06:05;;;;;;;3.03;1.40;;;25.00;50.10;;;;;;5017713;28;95088;-47
2022/01/21 04:08:38;;;;;;;4.55;1.35;;;25.00;50.00;;;;;;5017745;28;95102;-47
2022/01/21 04:11:12;;;;;;;3.63;1.10;;;24.90;49.80;;;;;;4982756;28;96085;-48
2022/01/21 04:13:46;;;;;;;4.28;1.48;;;24.90;50.10;;;;;;5016802;28;94948;-48
2022/01/21 04:16:22;;;;;;;3.22;1.20;;;25.00;49.80;;;;;;5000010;28;95158;-48
2022/01/21 04:18:55;;;;;;;3.80;1.45;;;24.90;49.90;;;;;;5017054;28;95349;-48
2022/01/21 04:21:31;;;;;;;2.67;1.25;;;24.90;49.90;;;;;;5016581;28;96424;-47
2022/01/21 04:24:05;;;;;;;3.85;1.23;;;24.90;50.00;;;;;;5016501;28;95720;-48
2022/01/21 04:26:40;;;;;;;7.80;1.30;;;24.90;49.60;;;;;;4999183;28;95060;-48
2022/01/21 04:29:17;;;;;;;2.72;1.40;;;24.90;49.40;;;;;;4998993;28;95344;-48
2022/01/21 04:31:53;;;;;;;3.38;1.77;;;24.90;49.30;;;;;;5016193;28;96432;-48
2022/01/21 04:34:30;;;;;;;2.53;1.42;;;24.90;49.20;;;;;;5016282;28;95869;-47
2022/01/21 04:37:05;;;;;;;2.80;1.55;;;24.90;49.20;;;;;;5016828;28;94959;-47
2022/01/21 04:39:54;;;;;;;3.78;1.20;;;24.90;49.10;;;;;;5017367;28;95296;-47
2022/01/21 04:48:15;;;;;;;2.45;1.45;;;24.80;49.30;;;;;;5018260;28;95002;-47
2022/01/21 04:51:00;;;;;;;4.10;1.30;;;24.80;48.80;;;;;;5018480;28;95109;-48
2022/01/21 04:53:41;;;;;;;2.50;1.15;;;24.80;48.50;;;;;;5017836;28;95872;-47
2022/01/21 04:56:19;;;;;;;2.97;1.30;;;24.80;48.70;;;;;;4999581;28;95430;-48
2022/01/21 04:58:53;;;;;;;3.10;1.00;;;24.90;48.30;;;;;;5017243;28;94940;-48
2022/01/21 05:01:27;;;;;;;2.53;1.27;;;24.90;48.30;;;;;;4998915;28;95367;-48
2022/01/21 05:04:00;;;;;;;1.60;1.00;;;24.90;47.60;;;;;;5014573;28;96573;-47
2022/01/21 05:06:34;;;;;;;4.00;1.08;;;24.90;47.70;;;;;;5016620;28;96073;-47
2022/01/21 05:09:07;;;;;;;3.13;1.20;;;24.90;47.60;;;;;;4998075;28;95035;-47
2022/01/21 05:11:40;;;;;;;3.67;1.17;;;24.80;47.60;;;;;;4998960;28;95364;-48
2022/01/21 05:14:20;;;;;;;2.35;1.05;;;24.80;47.60;;;;;;5017996;28;95435;-48
2022/01/21 05:17:06;;;;;;;3.55;1.50;;;24.70;47.40;;;;;;5018336;28;95335;-47
2022/01/21 05:19:39;;;;;;;2.97;1.27;;;24.70;47.30;;;;;;5020460;28;94978;-47
2022/01/21 05:22:23;;;;;;;3.13;0.98;;;24.70;47.50;;;;;;5016492;28;95214;-47
2022/01/21 05:24:55;;;;;;;3.88;1.23;;;24.60;47.30;;;;;;5001363;28;96201;-47
2022/01/21 05:27:28;;;;;;;1.20;0.90;;;24.70;34.40;;;;;;5001139;28;95584;-47
2022/01/21 05:30:00;;;;;;;2.13;0.93;;;24.60;47.10;;;;;;5019650;28;94955;-47
2022/01/21 05:32:50;;;;;;;3.90;1.15;;;24.60;47.10;;;;;;5019477;28;95437;-47
2022/01/21 05:35:45;;;;;;;2.47;1.20;;;24.60;46.90;;;;;;5019020;28;95955;-47
2022/01/21 05:38:51;;;;;;;2.75;0.90;;;24.60;46.80;;;;;;5034342;28;95440;-47
2022/01/21 05:41:53;;;;;;;1.98;1.17;;;24.60;46.80;;;;;;5018875;28;94968;-47
2022/01/21 05:48:06;;;;;;;2.65;1.10;;;24.60;46.70;;;;;;5003163;28;102551;-47
2022/01/21 05:51:08;;;;;;;4.03;0.85;;;24.60;46.80;;;;;;4964026;28;95408;-47
2022/01/21 05:53:52;;;;;;;6.05;1.10;;;24.50;46.70;;;;;;5019480;28;95037;-46
2022/01/21 05:56:31;;;;;;;2.53;0.80;;;24.60;47.60;;;;;;5018822;28;95359;-48
2022/01/21 05:59:12;;;;;;;2.08;1.10;;;24.70;47.40;;;;;;5018821;28;96077;-46
2022/01/21 06:01:45;;;;;;;4.28;1.35;;;24.80;47.30;;;;;;5018791;28;95486;-48
2022/01/21 06:04:19;;;;;;;1.52;0.82;;;24.80;34.40;;;;;;5019294;28;94967;-47
2022/01/21 06:06:51;;;;;;;4.05;1.13;;;24.80;47.60;;;;;;5019228;28;95191;-48
2022/01/21 06:09:24;;;;;;;1.73;1.00;;;24.80;47.20;;;;;;5019361;28;96046;-47
2022/01/21 06:11:57;;;;;;;7.30;1.40;;;24.90;47.00;;;;;;5018908;28;95328;-48
2022/01/21 06:14:28;;;;;;;1.67;0.80;;;24.80;46.70;;;;;;5019036;28;95010;-48
2022/01/21 06:17:00;;;;;;;2.50;0.90;;;24.90;46.60;;;;;;5017818;28;95385;-50
2022/01/21 06:19:33;;;;;;;1.13;0.80;;;24.80;46.60;;;;;;5018973;28;95979;-48
2022/01/21 06:22:08;;;;;;;1.58;0.90;;;25.00;47.00;;;;;;5018577;28;95326;-48
2022/01/21 06:24:41;;;;;;;1.10;1.00;;;25.00;47.20;;;;;;5018669;28;94970;-47
2022/01/21 06:27:15;;;;;;;4.25;1.00;;;24.90;46.40;;;;;;5001872;28;95079;-46
2022/01/21 06:29:47;;;;;;;1.08;0.57;;;24.80;46.50;;;;;;5018753;28;95932;-48
2022/01/21 06:32:20;;;;;;;2.17;1.00;;;24.80;46.30;;;;;;5017266;28;95194;-49
2022/01/21 06:34:58;;;;;;;0.80;0.80;;;24.80;45.90;;;;;;5018958;28;94927;-49
2022/01/21 06:37:33;;;;;;;1.75;0.90;;;24.80;45.60;;;;;;5019206;28;95155;-49
2022/01/21 06:40:08;;;;;;;0.93;0.90;;;24.70;45.40;;;;;;5018361;28;96035;-49
2022/01/21 06:42:43;;;;;;;2.58;0.93;;;24.60;45.20;;;;;;5018591;28;95407;-49
2022/01/21 06:45:15;;;;;;;2.67;1.23;;;24.60;45.00;;;;;;5004098;28;95082;-49
2022/01/21 06:47:47;;;;;;;3.17;0.80;;;24.60;44.90;;;;;;5019737;28;95184;-49
2022/01/21 06:50:21;;;;;;;4.43;1.23;;;24.60;44.90;;;;;;5001544;28;96849;-49
2022/01/21 06:52:54;;;;;;;3.53;0.80;;;24.50;44.80;;;;;;5034670;28;96156;-49
2022/01/21 06:55:27;;;;;;;1.65;0.80;;;24.50;44.90;;;;;;5019858;28;95062;-49
2022/01/21 06:58:00;;;;;;;1.92;1.10;;;24.60;44.80;;;;;;5019050;28;95278;-49
2022/01/21 07:00:35;;;;;;;2.15;0.98;;;24.60;44.80;;;;;;5018442;28;96066;-49
2022/01/21 07:03:07;;;;;;;5.50;0.73;;;24.60;32.00;;;;;;5018728;28;94959;-48
2022/01/21 07:05:40;;;;;;;5.32;1.10;;;24.50;44.80;;;;;;5019090;28;95038;-49
2022/01/21 07:08:14;;;;;;;2.90;0.60;;;24.50;44.80;;;;;;5018672;28;95207;-49
2022/01/21 07:10:46;;;;;;;0.93;0.90;;;24.50;44.70;;;;;;5001309;28;96088;-48
2022/01/21 07:13:18;;;;;;;1.00;0.90;;;24.50;44.50;;;;;;5017827;28;94938;-48
2022/01/21 07:15:50;;;;;;;3.50;1.00;;;24.50;44.50;;;;;;5033384;28;94990;-49
2022/01/21 07:18:24;;;;;;;1.67;0.95;;;24.50;44.60;;;;;;5018291;28;95314;-48
2022/01/21 07:20:57;;;;;;;2.40;1.08;;;24.50;44.50;;;;;;5018061;28;96436;-48
2022/01/21 07:23:29;;;;;;;1.95;0.88;;;24.40;44.60;;;;;;5017971;28;95243;-49
2022/01/21 07:26:02;;;;;;;3.65;1.13;;;24.40;44.50;;;;;;5018240;28;94950;-39
2022/01/21 07:28:35;;;;;;;3.90;1.00;;;24.40;45.00;;;;;;5018441;28;95191;-42
2022/01/21 07:31:08;;;;;;;2.88;1.00;;;24.40;44.70;;;;;;5018149;28;95181;-40
2022/01/21 07:33:40;;;;;;;1.33;0.73;;;24.30;44.70;;;;;;5017902;28;95265;-40
2022/01/21 07:36:12;;;;;;;1.23;0.65;;;24.40;45.30;;;;;;5017930;28;95042;-39
2022/01/21 07:38:43;;;;;;;0.70;0.70;;;24.30;44.60;;;;;;5017215;28;95067;-39
2022/01/21 07:41:17;;;;;;;3.38;0.90;;;24.30;44.60;;;;;;5017359;28;95854;-40
2022/01/21 07:43:52;;;;;;;2.55;0.90;;;24.30;44.60;;;;;;5017680;28;95433;-38
2022/01/21 07:46:26;;;;;;;3.13;1.05;;;24.30;44.60;;;;;;5018315;28;95086;-39
2022/01/21 07:48:59;;;;;;;3.20;0.85;;;24.30;44.60;;;;;;5019418;28;95188;-39
2022/01/21 07:51:32;;;;;;;2.15;0.90;;;24.20;44.70;;;;;;5019059;28;95392;-39
2022/01/21 07:54:05;;;;;;;2.17;1.92;;;24.20;44.80;;;;;;5000372;28;95919;-39
2022/01/21 07:56:39;;;;;;;9.95;5.47;;;24.20;45.00;;;;;;5000687;28;95079;-40
2022/01/21 07:59:13;;;;;;;58.83;37.00;;;24.20;45.10;;;;;;5017961;28;95036;-39
2022/01/21 08:01:46;;;;;;;120.00;86.93;;;24.20;45.10;;;;;;5031958;28;95020;-39
2022/01/21 08:04:18;;;;;;;122.45;88.32;;;24.20;44.10;;;;;;5016851;28;96497;-38
2022/01/21 08:06:50;;;;;;;131.73;91.30;;;24.20;45.30;;;;;;5017255;28;94945;-38
2022/01/21 08:09:24;;;;;;;117.47;81.93;;;24.40;45.50;;;;;;5016990;28;94870;-38
2022/01/21 08:11:57;;;;;;;111.88;80.35;;;24.40;45.60;;;;;;5015721;28;95069;-38
2022/01/21 08:14:29;;;;;;;112.93;76.78;;;24.50;45.70;;;;;;5016599;28;95484;-38
2022/01/21 08:17:02;;;;;;;103.78;73.40;;;24.60;45.90;;;;;;5015847;28;95291;-38
2022/01/21 08:19:35;;;;;;;96.28;68.82;;;24.60;46.10;;;;;;5016882;28;95177;-38
2022/01/21 08:22:09;;;;;;;98.50;72.45;;;24.70;46.30;;;;;;4983698;28;96183;-38
2022/01/21 08:24:44;;;;;;;98.05;69.40;;;24.70;46.40;;;;;;5016541;28;95741;-39
2022/01/21 08:27:15;;;;;;;95.15;67.90;;;24.70;46.60;;;;;;5016582;28;94985;-39
2022/01/21 08:29:50;;;;;;;97.28;66.47;;;24.70;46.70;;;;;;5016548;28;95190;-39
2022/01/21 08:32:22;;;;;;;92.75;65.45;;;24.80;47.00;;;;;;5044044;27;96497;-39
2022/01/21 08:34:54;;;;;;;88.25;60.85;;;24.80;47.20;;;;;;5016387;28;95859;-38
2022/01/21 08:37:27;;;;;;;86.80;60.75;;;24.80;47.40;;;;;;5016676;28;94957;-38
2022/01/21 08:40:00;;;;;;;84.10;59.00;;;24.80;47.60;;;;;;5016322;28;95175;-38
2022/01/21 08:42:32;;;;;;;78.28;55.38;;;24.80;46.80;;;;;;5016048;28;95441;-38
2022/01/21 08:45:05;;;;;;;80.05;55.33;;;24.80;47.90;;;;;;5016029;28;95268;-38
2022/01/21 08:47:36;;;;;;;79.55;54.60;;;24.90;48.10;;;;;;5016503;28;95355;-38
2022/01/21 08:50:12;;;;;;;69.43;51.15;;;24.90;48.10;;;;;;5021096;28;95107;-38
2022/01/21 08:52:45;;;;;;;73.28;51.00;;;24.90;48.40;;;;;;5020566;28;96404;-38
2022/01/21 08:55:20;;;;;;;68.28;47.58;;;24.90;48.50;;;;;;5019998;28;95477;-38
2022/01/21 08:57:52;;;;;;;64.75;46.00;;;24.90;48.70;;;;;;5003352;28;94970;-38
2022/01/21 09:00:24;;;;;;;60.60;45.13;;;24.90;48.70;;;;;;5020018;28;95136;-38
2022/01/21 09:02:56;;;;;;;59.92;41.70;;;24.90;48.90;;;;;;5019710;28;95888;-38
2022/01/21 09:05:30;;;;;;;54.83;39.47;;;24.90;49.10;;;;;;5019493;28;95817;-38
2022/01/21 09:08:07;;;;;;;52.78;38.20;;;24.90;49.10;;;;;;5020272;28;94926;-38
2022/01/21 09:10:39;;;;;;;62.28;39.60;;;24.90;49.30;;;;;;5020039;28;95268;-38
2022/01/21 09:13:12;;;;;;;54.15;37.47;;;25.00;35.90;;;;;;5019618;28;96045;-38
2022/01/21 09:15:47;;;;;;;52.28;34.97;;;24.90;49.50;;;;;;5019361;28;95921;-38
2022/01/21 09:18:21;;;;;;;52.97;38.13;;;24.90;49.60;;;;;;5019835;28;95049;-38
2022/01/21 09:20:53;;;;;;;47.17;34.00;;;24.90;49.70;;;;;;5019452;28;95155;-38
2022/01/21 09:23:25;;;;;;;53.90;36.60;;;24.90;49.80;;;;;;5019278;28;96435;-38
2022/01/21 09:25:57;;;;;;;46.63;34.85;;;24.90;49.90;;;;;;5018950;28;95857;-38
2022/01/21 09:28:32;;;;;;;50.22;34.67;;;24.90;50.00;;;;;;5018396;28;94856;-37
2022/01/21 09:31:08;;;;;;;61.00;44.40;;;24.90;50.10;;;;;;5018684;28;95223;-37
2022/01/21 09:33:41;;;;;;;53.00;40.38;;;24.90;50.30;;;;;;5001454;28;96024;-37
2022/01/21 09:36:14;;;;;;;50.92;39.33;;;24.90;50.20;;;;;;5018942;28;95264;-37
2022/01/21 09:38:47;;;;;;;51.15;39.45;;;24.90;50.40;;;;;;5019105;28;94960;-37
2022/01/21 09:41:21;;;;;;;48.17;38.38;;;24.90;50.30;;;;;;5001028;28;95407;-37
2022/01/21 09:43:54;;;;;;;49.92;40.00;;;25.00;50.40;;;;;;5018874;28;95953;-37
2022/01/21 09:46:35;;;;;;;50.47;38.20;;;24.90;50.50;;;;;;5019539;28;95459;-37
2022/01/21 09:52:01;;;;;;;12.30;4.50;;;24.60;51.00;;;;;;5052877;27;95377;-40
2022/01/21 09:54:48;;;;;;;30.33;22.08;;;24.30;52.50;;;;;;5020142;28;95878;-40
2022/01/21 09:57:23;;;;;;;51.42;37.53;;;23.90;53.80;;;;;;4999941;28;95839;-39
2022/01/21 09:59:57;;;;;;;45.53;36.20;;;23.70;55.20;;;;;;5017815;28;94940;-40
2022/01/21 10:02:30;;;;;;;15.98;11.02;;;23.70;55.10;;;;;;5018356;28;95179;-39
2022/01/21 10:05:05;;;;;;;8.52;2.50;;;23.60;54.80;;;;;;5019206;28;95832;-40
2022/01/21 10:07:39;;;;;;;8.18;2.25;;;23.50;55.10;;;;;;5019727;28;95899;-40
2022/01/21 10:10:12;;;;;;;6.57;2.85;;;23.30;55.30;;;;;;5020001;28;94992;-39
2022/01/21 10:13:01;;;;;;;4.80;2.15;;;23.20;57.30;;;;;;5019180;28;95284;-40
2022/01/21 10:15:34;;;;;;;10.55;2.03;;;22.90;56.90;;;;;;5019262;28;94948;-40
2022/01/21 10:18:13;;;;;;;5.22;2.45;;;22.80;55.80;;;;;;5015008;28;95487;-39
2022/01/21 10:21:12;;;;;;;9.13;2.88;;;22.60;58.40;;;;;;5000746;28;95038;-39
2022/01/21 10:23:45;;;;;;;12.30;2.70;;;22.50;59.20;;;;;;5019513;28;95195;-40
2022/01/21 10:26:23;;;;;;;9.68;2.72;;;22.40;59.50;;;;;;5018775;28;96509;-40
2022/01/21 10:28:57;;;;;;;10.45;3.65;;;22.30;59.70;;;;;;5018545;28;95695;-40
2022/01/21 10:31:30;;;;;;;5.18;1.40;;;22.30;60.40;;;;;;5019408;28;94953;-39
2022/01/21 10:34:05;;;;;;;20.35;2.20;;;22.30;60.60;;;;;;5019318;28;95104;-40
2022/01/21 10:36:45;;;;;;;13.68;3.08;;;22.10;60.80;;;;;;5017755;28;95936;-40
2022/01/21 10:39:29;;;;;;;11.90;2.30;;;22.00;62.10;;;;;;5018524;28;95542;-40
2022/01/21 10:42:02;;;;;;;11.50;3.00;;;21.90;61.30;;;;;;5018340;28;95201;-40
2022/01/21 10:44:34;;;;;;;10.75;2.17;;;21.90;61.50;;;;;;5000723;28;95355;-40
2022/01/21 10:47:11;;;;;;;8.85;2.53;;;21.70;62.40;;;;;;5017848;28;96032;-40
2022/01/21 10:49:57;;;;;;;7.53;2.40;;;21.80;63.00;;;;;;5001445;28;95192;-40
2022/01/21 10:52:34;;;;;;;11.05;2.50;;;21.80;62.80;;;;;;5018994;28;95069;-40
2022/01/21 10:55:27;;;;;;;6.93;2.05;;;21.60;63.20;;;;;;5020005;28;95084;-40
2022/01/21 10:58:17;;;;;;;10.77;2.30;;;21.50;63.70;;;;;;5019225;28;95839;-40
2022/01/21 11:01:17;;;;;;;11.23;2.35;;;21.30;64.00;;;;;;5018686;28;95473;-40
2022/01/21 11:04:12;;;;;;;11.73;2.13;;;21.30;65.20;;;;;;5018764;28;95076;-39
2022/01/21 11:06:56;;;;;;;7.85;2.35;;;21.20;65.80;;;;;;5018823;28;95215;-40
2022/01/21 11:09:29;;;;;;;6.90;2.28;;;21.30;65.70;;;;;;5019211;28;96147;-40
2022/01/21 11:12:16;;;;;;;11.50;2.42;;;21.20;66.00;;;;;;4999664;28;95831;-40
2022/01/21 11:15:05;;;;;;;9.18;1.85;;;21.10;65.40;;;;;;5018472;28;94975;-39
2022/01/21 11:17:56;;;;;;;10.48;2.90;;;21.10;66.00;;;;;;5017457;28;95384;-39
2022/01/21 11:20:39;;;;;;;9.68;2.20;;;21.10;66.80;;;;;;5018311;28;95132;-39
2022/01/21 11:23:12;;;;;;;9.40;1.83;;;21.00;66.40;;;;;;5018053;28;96006;-40
2022/01/21 11:25:51;;;;;;;8.63;2.13;;;20.90;67.20;;;;;;5011883;28;94972;-38
2022/01/21 11:28:25;;;;;;;13.50;3.42;;;20.90;67.20;;;;;;5000161;28;95444;-39
2022/01/21 11:30:58;;;;;;;8.73;2.58;;;20.90;67.20;;;;;;5018015;28;95822;-39
2022/01/21 11:33:30;;;;;;;9.02;1.90;;;20.70;67.80;;;;;;5017611;28;95494;-39
2022/01/21 11:36:03;;;;;;;10.45;2.35;;;20.60;68.20;;;;;;5033127;28;95079;-40
2022/01/21 11:38:38;;;;;;;7.78;2.40;;;20.40;68.70;;;;;;5017856;28;95302;-39
2022/01/21 11:41:10;;;;;;;8.65;2.40;;;20.60;69.20;;;;;;4999015;28;96068;-39
2022/01/21 11:43:52;;;;;;;10.05;2.15;;;20.70;68.80;;;;;;5016870;28;95903;-39
2022/01/21 11:49:17;;;;;;;7.22;1.88;;;20.50;69.30;;;;;;5034207;28;95408;-39
2022/01/21 11:51:50;;;;;;;7.45;2.15;;;20.70;69.40;;;;;;5018331;28;96149;-39
2022/01/21 11:54:25;;;;;;;15.00;2.50;;;20.50;69.30;;;;;;5017489;28;95527;-40
2022/01/21 11:57:02;;;;;;;17.13;2.45;;;20.60;69.90;;;;;;5018868;28;95026;-39
2022/01/21 11:59:50;;;;;;;7.70;1.95;;;20.70;69.40;;;;;;5017808;28;95163;-39
2022/01/21 12:02:32;;;;;;;7.47;2.15;;;20.70;70.20;;;;;;5001288;28;96469;-40
2022/01/21 12:05:08;;;;;;;7.18;2.08;;;20.70;69.90;;;;;;5018024;28;95249;-39
2022/01/21 12:07:49;;;;;;;4.80;1.60;;;20.60;69.40;;;;;;5017925;28;94965;-39
2022/01/21 12:10:23;;;;;;;10.98;2.10;;;20.50;69.70;;;;;;5018277;28;95124;-39
2022/01/21 12:13:01;;;;;;;8.13;1.88;;;20.50;70.10;;;;;;4998466;28;95312;-38
2022/01/21 12:15:39;;;;;;;12.25;2.72;;;20.50;70.60;;;;;;5017405;28;95463;-39
2022/01/21 12:21:05;;;;;;;10.32;2.25;;;20.00;70.90;;;;;;5017822;28;95144;-39
2022/01/21 12:23:46;;;;;;;12.82;2.00;;;19.80;72.50;;;;;;5017871;28;96448;-39
2022/01/21 12:26:27;;;;;;;6.43;1.90;;;19.70;72.30;;;;;;5020496;28;95797;-39
2022/01/21 12:29:01;;;;;;;9.07;2.05;;;19.50;73.70;;;;;;5020521;28;95021;-39
2022/01/21 12:31:45;;;;;;;12.27;2.05;;;19.50;73.60;;;;;;5021366;28;95151;-39
2022/01/21 12:34:25;;;;;;;9.70;2.42;;;19.60;73.30;;;;;;5017457;28;95870;-39
2022/01/21 12:37:07;;;;;;;6.65;2.45;;;19.50;74.10;;;;;;5020552;28;95224;-39
2022/01/21 12:39:42;;;;;;;;;;;19.50;74.10;;;;;;5021115;28;94990;-39
2022/01/21 12:42:28;;;;;;;9.95;2.17;;;19.40;74.00;;;;;;5021788;28;95223;-39
2022/01/21 12:45:06;;;;;;;8.18;2.15;;;19.40;74.20;;;;;;5021000;28;95838;-39
2022/01/21 12:47:43;;;;;;;12.32;2.72;;;19.40;74.50;;;;;;5020275;28;95330;-39
2022/01/21 12:50:49;;;;;;;7.40;2.10;;;19.50;74.60;;;;;;5020608;28;94937;-39
2022/01/21 12:53:44;;;;;;;9.13;2.63;;;19.40;74.40;;;;;;5021805;28;95199;-39
2022/01/21 12:56:16;;;;;;;10.30;2.15;;;19.30;74.70;;;;;;5020611;28;95872;-39
2022/01/21 12:58:48;;;;;;;9.18;2.03;;;19.10;74.50;;;;;;5020693;28;95267;-39
2022/01/21 13:01:21;;;;;;;9.68;2.22;;;18.90;75.70;;;;;;5003737;28;94992;-39
2022/01/21 13:04:10;;;;;;;8.75;1.98;;;18.90;75.90;;;;;;5020544;28;95339;-39
2022/01/21 13:07:49;;;;;;;8.60;1.88;;;18.90;76.50;;;;;;5003320;28;95829;-39
2022/01/21 13:10:27;;;;;;;8.88;2.47;;;19.00;76.40;;;;;;4939492;28;94940;-40
2022/01/21 13:15:47;;;;;;;11.20;2.35;;;18.90;75.50;;;;;;4939315;28;95521;-40
2022/01/21 13:18:36;;;;;;;12.25;2.38;;;18.60;61.00;;;;;;4938839;28;96295;-40
2022/01/21 13:21:09;;;;;;;9.93;2.30;;;18.70;78.20;;;;;;4938362;28;95313;-39
2022/01/21 13:24:15;;;;;;;7.35;1.70;;;18.90;77.10;;;;;;4938965;28;95076;-39
2022/01/21 13:26:39;;;;;;;7.68;2.08;;;18.90;76.70;;;;;;4938724;28;95577;-40
2022/01/21 13:29:13;;;;;;;11.23;2.03;;;18.90;77.10;;;;;;4938298;28;96006;-39
2022/01/21 13:31:49;;;;;;;15.15;3.70;;;18.80;77.20;;;;;;4938592;28;95782;-40
2022/01/21 13:34:36;;;;;;;22.92;3.45;;;18.90;76.50;;;;;;4938887;28;95135;-40
2022/01/21 13:37:18;;;;;;;20.20;3.78;;;18.70;76.30;;;;;;4939028;28;95286;-40
2022/01/21 13:39:51;;;;;;;11.00;2.20;;;18.50;77.90;;;;;;4937513;28;96437;-39
2022/01/21 13:42:26;;;;;;;9.88;2.20;;;18.50;77.40;;;;;;5019282;28;95779;-40
2022/01/21 13:45:05;;;;;;;9.40;2.20;;;18.20;77.90;;;;;;5020099;28;94854;-40
2022/01/21 13:47:42;;;;;;;6.68;2.58;;;18.10;79.00;;;;;;5001015;28;95361;-40
2022/01/21 13:50:22;;;;;;;9.50;2.25;;;18.00;79.60;;;;;;5020716;28;95840;-40
2022/01/21 13:53:01;;;;;;;11.30;2.45;;;18.20;79.10;;;;;;5002986;28;96231;-40
2022/01/21 13:55:55;;;;;;;13.20;2.28;;;18.00;79.30;;;;;;5020686;28;95032;-40
2022/01/21 13:58:33;;;;;;;18.52;2.92;;;17.90;79.70;;;;;;5020263;28;95428;-40
2022/01/21 14:01:13;;;;;;;14.65;2.55;;;17.90;80.30;;;;;;5019681;28;95466;-39
2022/01/21 14:03:46;;;;;;;13.98;2.42;;;17.90;80.30;;;;;;5019776;28;95471;-40
2022/01/21 14:06:20;;;;;;;13.63;2.42;;;17.80;80.50;;;;;;5019582;28;94954;-40
2022/01/21 14:08:59;;;;;;;10.25;2.08;;;17.80;81.00;;;;;;5019805;28;95156;-40
2022/01/21 14:11:47;;;;;;;13.20;2.58;;;17.60;80.90;;;;;;5019188;28;96457;-40
2022/01/21 14:14:24;;;;;;;16.35;4.13;;;17.40;82.20;;;;;;5018941;28;95739;-40
2022/01/21 14:16:57;;;;;;;19.45;2.80;;;17.10;82.80;;;;;;5018264;28;94911;-39
2022/01/21 14:19:31;;;;;;;13.48;2.70;;;17.00;83.60;;;;;;5014200;28;95229;-37
2022/01/21 14:22:08;;;;;;;12.65;3.00;;;17.10;84.60;;;;;;5019284;28;95067;-38
2022/01/21 14:24:43;;;;;;;10.02;2.78;;;17.80;81.00;;;;;;5018982;28;95769;-36